KPDK

Dekalb-Peachtree Airport

Atlanta, Georgia, USA
METAR KPDK 110153Z 32004KT 9SM -RA OVC007 04/03 A3017 RMK AO2 RAE19B33 SLP227 P0001 T00440033
Observed Flight Rules
Dec-11 @ 01:53 UTC (an hour ago) Instrument Flight Rules
Wind Visibility Clouds Conditions
320° at 4 knots 9 miles
  • Overcast at 700' AGL
  • Light Rain
Temperatures Readings Precipitation
Current 4°C / 39°F
Dewpoint 3°C / 37°F
Humidity 93%
Altimeter 30.17" Hg
Pressure 1022.7 hPa
Elevation 302
Current Rain 0.01
METAR KPDK 110153Z 32004KT 9SM -RA OVC007 04/03 A3017 RMK AO2 RAE19B33 SLP227 P0001 T00440033
Observed Flight Rules
Dec-11 @ 01:53 UTC
(an hour ago)
IFR
Wind Visibility
320° at 4 knots 9 miles
Clouds
  • Overcast at 700' AGL
Conditions
  • Light Rain
Temperature Dewpoint
4°C / 39°F 3°C / 37°F
Humidity Altimeter Pressure
93% 30.17" Hg 1022.7 hPa
Current Rain
0.01